sensor_id;sensor_type;location;lat;lon;timestamp;P1;durP1;ratioP1;P2;durP2;ratioP2
64966;SDS011;51710;38.732;-121.358;2023-03-16T00:02:15;1.35;;;0.50;;
64966;SDS011;51710;38.732;-121.358;2023-03-16T00:04:42;1.52;;;0.70;;
64966;SDS011;51710;38.732;-121.358;2023-03-16T00:07:11;0.68;;;0.60;;
64966;SDS011;51710;38.732;-121.358;2023-03-16T00:09:39;1.42;;;0.47;;
64966;SDS011;51710;38.732;-121.358;2023-03-16T00:12:06;1.00;;;0.57;;
64966;SDS011;51710;38.732;-121.358;2023-03-16T00:14:47;1.48;;;0.60;;
64966;SDS011;51710;38.732;-121.358;2023-03-16T00:17:14;1.27;;;0.52;;
64966;SDS011;51710;38.732;-121.358;2023-03-16T00:19:46;3.92;;;1.13;;
64966;SDS011;51710;38.732;-121.358;2023-03-16T00:22:15;1.35;;;0.80;;
64966;SDS011;51710;38.732;-121.358;2023-03-16T00:24:41;2.03;;;0.70;;
64966;SDS011;51710;38.732;-121.358;2023-03-16T00:27:12;3.22;;;0.73;;
64966;SDS011;51710;38.732;-121.358;2023-03-16T00:29:42;1.25;;;0.63;;
64966;SDS011;51710;38.732;-121.358;2023-03-16T00:32:13;1.73;;;1.07;;
64966;SDS011;51710;38.732;-121.358;2023-03-16T00:34:41;3.90;;;1.00;;
64966;SDS011;51710;38.732;-121.358;2023-03-16T00:37:08;1.10;;;0.70;;
64966;SDS011;51710;38.732;-121.358;2023-03-16T00:39:38;1.60;;;0.90;;
64966;SDS011;51710;38.732;-121.358;2023-03-16T00:42:06;1.00;;;0.77;;
64966;SDS011;51710;38.732;-121.358;2023-03-16T00:44:34;3.72;;;0.70;;
64966;SDS011;51710;38.732;-121.358;2023-03-16T00:47:01;2.08;;;0.80;;
64966;SDS011;51710;38.732;-121.358;2023-03-16T00:49:29;2.08;;;0.70;;
64966;SDS011;51710;38.732;-121.358;2023-03-16T00:52:05;1.40;;;0.73;;
64966;SDS011;51710;38.732;-121.358;2023-03-16T00:54:32;1.73;;;0.90;;
64966;SDS011;51710;38.732;-121.358;2023-03-16T00:56:59;3.50;;;1.10;;
64966;SDS011;51710;38.732;-121.358;2023-03-16T00:59:26;3.50;;;0.70;;
64966;SDS011;51710;38.732;-121.358;2023-03-16T01:01:54;1.63;;;0.77;;
64966;SDS011;51710;38.732;-121.358;2023-03-16T01:04:20;2.38;;;0.60;;
64966;SDS011;51710;38.732;-121.358;2023-03-16T01:06:47;0.40;;;0.40;;
64966;SDS011;51710;38.732;-121.358;2023-03-16T01:09:14;2.58;;;0.82;;
64966;SDS011;51710;38.732;-121.358;2023-03-16T01:11:40;2.05;;;0.70;;
64966;SDS011;51710;38.732;-121.358;2023-03-16T01:14:10;3.72;;;1.00;;
64966;SDS011;51710;38.732;-121.358;2023-03-16T01:16:37;1.45;;;0.70;;
64966;SDS011;51710;38.732;-121.358;2023-03-16T01:19:03;4.07;;;0.80;;
64966;SDS011;51710;38.732;-121.358;2023-03-16T01:21:29;2.53;;;1.30;;
64966;SDS011;51710;38.732;-121.358;2023-03-16T01:23:58;1.75;;;0.80;;
64966;SDS011;51710;38.732;-121.358;2023-03-16T01:26:24;2.92;;;1.00;;
64966;SDS011;51710;38.732;-121.358;2023-03-16T01:28:51;1.88;;;0.98;;
64966;SDS011;51710;38.732;-121.358;2023-03-16T01:31:17;3.33;;;0.75;;
64966;SDS011;51710;38.732;-121.358;2023-03-16T01:33:43;3.83;;;1.05;;
64966;SDS011;51710;38.732;-121.358;2023-03-16T01:38:37;3.72;;;0.93;;
64966;SDS011;51710;38.732;-121.358;2023-03-16T01:41:04;3.22;;;1.00;;
64966;SDS011;51710;38.732;-121.358;2023-03-16T01:43:32;4.95;;;0.95;;
64966;SDS011;51710;38.732;-121.358;2023-03-16T01:46:08;3.22;;;0.95;;
64966;SDS011;51710;38.732;-121.358;2023-03-16T01:49:05;5.72;;;1.13;;
64966;SDS011;51710;38.732;-121.358;2023-03-16T01:51:34;1.95;;;0.90;;
64966;SDS011;51710;38.732;-121.358;2023-03-16T01:54:11;1.85;;;0.80;;
64966;SDS011;51710;38.732;-121.358;2023-03-16T01:56:55;1.30;;;0.80;;
64966;SDS011;51710;38.732;-121.358;2023-03-16T01:59:30;5.45;;;1.00;;
64966;SDS011;51710;38.732;-121.358;2023-03-16T02:02:00;3.45;;;1.00;;
64966;SDS011;51710;38.732;-121.358;2023-03-16T02:04:31;5.53;;;0.80;;
64966;SDS011;51710;38.732;-121.358;2023-03-16T02:07:02;3.03;;;0.73;;
64966;SDS011;51710;38.732;-121.358;2023-03-16T02:09:31;4.13;;;1.30;;
64966;SDS011;51710;38.732;-121.358;2023-03-16T02:12:00;3.28;;;0.93;;
64966;SDS011;51710;38.732;-121.358;2023-03-16T02:14:26;3.63;;;1.02;;
64966;SDS011;51710;38.732;-121.358;2023-03-16T02:16:53;1.90;;;1.08;;
64966;SDS011;51710;38.732;-121.358;2023-03-16T02:19:29;3.08;;;0.80;;
64966;SDS011;51710;38.732;-121.358;2023-03-16T02:22:07;1.05;;;0.60;;
64966;SDS011;51710;38.732;-121.358;2023-03-16T02:24:35;1.77;;;0.85;;
64966;SDS011;51710;38.732;-121.358;2023-03-16T02:27:03;2.75;;;0.95;;
64966;SDS011;51710;38.732;-121.358;2023-03-16T02:32:25;3.47;;;1.10;;
64966;SDS011;51710;38.732;-121.358;2023-03-16T02:34:54;3.67;;;0.95;;
64966;SDS011;51710;38.732;-121.358;2023-03-16T02:37:22;1.88;;;0.80;;
64966;SDS011;51710;38.732;-121.358;2023-03-16T02:39:49;4.22;;;1.00;;
64966;SDS011;51710;38.732;-121.358;2023-03-16T02:42:16;3.40;;;0.90;;
64966;SDS011;51710;38.732;-121.358;2023-03-16T02:44:47;2.00;;;0.90;;
64966;SDS011;51710;38.732;-121.358;2023-03-16T02:50:16;4.28;;;1.20;;
64966;SDS011;51710;38.732;-121.358;2023-03-16T02:52:42;1.83;;;0.90;;
64966;SDS011;51710;38.732;-121.358;2023-03-16T02:55:08;2.25;;;0.98;;
64966;SDS011;51710;38.732;-121.358;2023-03-16T02:57:35;2.28;;;0.95;;
64966;SDS011;51710;38.732;-121.358;2023-03-16T03:00:01;2.20;;;1.05;;
64966;SDS011;51710;38.732;-121.358;2023-03-16T03:02:35;2.05;;;0.95;;
64966;SDS011;51710;38.732;-121.358;2023-03-16T03:05:01;3.92;;;1.42;;
64966;SDS011;51710;38.732;-121.358;2023-03-16T03:07:27;3.72;;;1.20;;
64966;SDS011;51710;38.732;-121.358;2023-03-16T03:09:56;2.85;;;1.50;;
64966;SDS011;51710;38.732;-121.358;2023-03-16T03:12:23;5.68;;;1.50;;
64966;SDS011;51710;38.732;-121.358;2023-03-16T03:14:49;4.80;;;1.50;;
64966;SDS011;51710;38.732;-121.358;2023-03-16T03:17:15;4.10;;;1.42;;
64966;SDS011;51710;38.732;-121.358;2023-03-16T03:19:42;3.20;;;1.50;;
64966;SDS011;51710;38.732;-121.358;2023-03-16T03:22:08;4.55;;;1.20;;
64966;SDS011;51710;38.732;-121.358;2023-03-16T03:24:34;2.08;;;1.10;;
64966;SDS011;51710;38.732;-121.358;2023-03-16T03:27:01;3.05;;;1.30;;
64966;SDS011;51710;38.732;-121.358;2023-03-16T03:29:31;3.13;;;1.13;;
64966;SDS011;51710;38.732;-121.358;2023-03-16T03:32:00;3.80;;;1.35;;
64966;SDS011;51710;38.732;-121.358;2023-03-16T03:34:28;2.78;;;1.30;;
64966;SDS011;51710;38.732;-121.358;2023-03-16T03:36:54;3.30;;;1.10;;
64966;SDS011;51710;38.732;-121.358;2023-03-16T03:39:21;2.20;;;1.00;;
64966;SDS011;51710;38.732;-121.358;2023-03-16T03:41:48;1.40;;;0.90;;
64966;SDS011;51710;38.732;-121.358;2023-03-16T03:44:14;4.32;;;0.90;;
64966;SDS011;51710;38.732;-121.358;2023-03-16T03:46:40;1.80;;;0.90;;
64966;SDS011;51710;38.732;-121.358;2023-03-16T03:49:06;1.35;;;1.10;;
64966;SDS011;51710;38.732;-121.358;2023-03-16T03:51:33;2.55;;;1.13;;
64966;SDS011;51710;38.732;-121.358;2023-03-16T03:53:59;1.92;;;0.95;;
64966;SDS011;51710;38.732;-121.358;2023-03-16T03:56:25;5.45;;;1.00;;
64966;SDS011;51710;38.732;-121.358;2023-03-16T03:58:52;3.45;;;1.00;;
64966;SDS011;51710;38.732;-121.358;2023-03-16T04:01:18;4.63;;;1.00;;
64966;SDS011;51710;38.732;-121.358;2023-03-16T04:03:45;3.42;;;1.00;;
64966;SDS011;51710;38.732;-121.358;2023-03-16T04:06:11;4.50;;;1.48;;
64966;SDS011;51710;38.732;-121.358;2023-03-16T04:08:38;2.85;;;1.50;;
64966;SDS011;51710;38.732;-121.358;2023-03-16T04:11:04;3.50;;;1.45;;
64966;SDS011;51710;38.732;-121.358;2023-03-16T04:13:30;3.85;;;1.10;;
64966;SDS011;51710;38.732;-121.358;2023-03-16T04:15:57;3.00;;;1.58;;
64966;SDS011;51710;38.732;-121.358;2023-03-16T04:18:27;3.70;;;1.20;;
64966;SDS011;51710;38.732;-121.358;2023-03-16T04:20:54;4.32;;;1.80;;
64966;SDS011;51710;38.732;-121.358;2023-03-16T04:23:20;4.00;;;1.23;;
64966;SDS011;51710;38.732;-121.358;2023-03-16T04:25:49;2.42;;;1.58;;
64966;SDS011;51710;38.732;-121.358;2023-03-16T04:28:16;2.63;;;1.15;;
64966;SDS011;51710;38.732;-121.358;2023-03-16T04:30:42;6.40;;;1.70;;
64966;SDS011;51710;38.732;-121.358;2023-03-16T04:33:09;4.13;;;1.30;;
64966;SDS011;51710;38.732;-121.358;2023-03-16T04:35:35;3.22;;;1.70;;
64966;SDS011;51710;38.732;-121.358;2023-03-16T04:38:01;4.55;;;1.80;;
64966;SDS011;51710;38.732;-121.358;2023-03-16T04:40:27;7.03;;;1.92;;
64966;SDS011;51710;38.732;-121.358;2023-03-16T04:42:54;4.25;;;1.70;;
64966;SDS011;51710;38.732;-121.358;2023-03-16T04:45:22;6.22;;;2.03;;
64966;SDS011;51710;38.732;-121.358;2023-03-16T04:47:53;3.20;;;1.80;;
64966;SDS011;51710;38.732;-121.358;2023-03-16T04:50:19;3.03;;;1.80;;
64966;SDS011;51710;38.732;-121.358;2023-03-16T04:52:45;5.38;;;2.25;;
64966;SDS011;51710;38.732;-121.358;2023-03-16T04:55:11;8.38;;;2.17;;
64966;SDS011;51710;38.732;-121.358;2023-03-16T04:57:38;7.45;;;2.15;;
64966;SDS011;51710;38.732;-121.358;2023-03-16T05:00:04;6.60;;;2.53;;
64966;SDS011;51710;38.732;-121.358;2023-03-16T05:02:36;7.55;;;2.22;;
64966;SDS011;51710;38.732;-121.358;2023-03-16T05:05:03;5.20;;;1.70;;
64966;SDS011;51710;38.732;-121.358;2023-03-16T05:07:31;6.03;;;2.28;;
64966;SDS011;51710;38.732;-121.358;2023-03-16T05:09:58;7.30;;;2.33;;
64966;SDS011;51710;38.732;-121.358;2023-03-16T05:12:25;5.82;;;2.10;;
64966;SDS011;51710;38.732;-121.358;2023-03-16T05:14:51;7.30;;;1.95;;
64966;SDS011;51710;38.732;-121.358;2023-03-16T05:17:18;5.90;;;1.90;;
64966;SDS011;51710;38.732;-121.358;2023-03-16T05:19:44;3.15;;;1.75;;
64966;SDS011;51710;38.732;-121.358;2023-03-16T05:22:11;7.78;;;1.80;;
64966;SDS011;51710;38.732;-121.358;2023-03-16T05:24:44;3.75;;;1.60;;
64966;SDS011;51710;38.732;-121.358;2023-03-16T05:27:15;4.85;;;1.30;;
64966;SDS011;51710;38.732;-121.358;2023-03-16T05:29:50;3.05;;;1.40;;
64966;SDS011;51710;38.732;-121.358;2023-03-16T05:32:22;4.57;;;1.70;;
64966;SDS011;51710;38.732;-121.358;2023-03-16T05:34:48;8.38;;;2.05;;
64966;SDS011;51710;38.732;-121.358;2023-03-16T05:37:17;3.42;;;1.50;;
64966;SDS011;51710;38.732;-121.358;2023-03-16T05:39:44;7.53;;;1.70;;
64966;SDS011;51710;38.732;-121.358;2023-03-16T05:42:10;3.78;;;1.90;;
64966;SDS011;51710;38.732;-121.358;2023-03-16T05:44:36;3.33;;;1.75;;
64966;SDS011;51710;38.732;-121.358;2023-03-16T05:47:02;4.05;;;1.55;;
64966;SDS011;51710;38.732;-121.358;2023-03-16T05:49:28;3.85;;;1.70;;
64966;SDS011;51710;38.732;-121.358;2023-03-16T05:51:55;7.60;;;1.95;;
64966;SDS011;51710;38.732;-121.358;2023-03-16T05:54:21;2.72;;;1.35;;
64966;SDS011;51710;38.732;-121.358;2023-03-16T05:56:48;3.45;;;1.70;;
64966;SDS011;51710;38.732;-121.358;2023-03-16T05:59:14;5.95;;;1.85;;
64966;SDS011;51710;38.732;-121.358;2023-03-16T06:01:42;4.80;;;2.00;;
64966;SDS011;51710;38.732;-121.358;2023-03-16T06:04:08;2.75;;;1.40;;
64966;SDS011;51710;38.732;-121.358;2023-03-16T06:06:35;3.63;;;1.40;;
64966;SDS011;51710;38.732;-121.358;2023-03-16T06:09:02;7.38;;;2.17;;
64966;SDS011;51710;38.732;-121.358;2023-03-16T06:11:29;2.58;;;1.40;;
64966;SDS011;51710;38.732;-121.358;2023-03-16T06:13:57;4.20;;;1.60;;
64966;SDS011;51710;38.732;-121.358;2023-03-16T06:16:24;3.13;;;1.58;;
64966;SDS011;51710;38.732;-121.358;2023-03-16T06:18:51;3.63;;;1.50;;
64966;SDS011;51710;38.732;-121.358;2023-03-16T06:21:17;2.55;;;1.17;;
64966;SDS011;51710;38.732;-121.358;2023-03-16T06:23:44;3.17;;;2.00;;
64966;SDS011;51710;38.732;-121.358;2023-03-16T06:26:10;2.45;;;1.48;;
64966;SDS011;51710;38.732;-121.358;2023-03-16T06:28:36;5.10;;;1.75;;
64966;SDS011;51710;38.732;-121.358;2023-03-16T06:31:03;3.00;;;1.58;;
64966;SDS011;51710;38.732;-121.358;2023-03-16T06:33:30;4.88;;;1.63;;
64966;SDS011;51710;38.732;-121.358;2023-03-16T06:35:56;4.25;;;1.30;;
64966;SDS011;51710;38.732;-121.358;2023-03-16T06:38:22;3.35;;;1.30;;
64966;SDS011;51710;38.732;-121.358;2023-03-16T06:40:52;2.20;;;1.30;;
64966;SDS011;51710;38.732;-121.358;2023-03-16T06:43:19;2.40;;;1.40;;
64966;SDS011;51710;38.732;-121.358;2023-03-16T06:45:45;5.30;;;1.20;;
64966;SDS011;51710;38.732;-121.358;2023-03-16T06:48:14;4.45;;;1.63;;
64966;SDS011;51710;38.732;-121.358;2023-03-16T06:50:40;7.40;;;1.40;;
64966;SDS011;51710;38.732;-121.358;2023-03-16T06:53:09;3.28;;;1.38;;
64966;SDS011;51710;38.732;-121.358;2023-03-16T06:55:35;2.80;;;1.50;;
64966;SDS011;51710;38.732;-121.358;2023-03-16T06:58:02;4.43;;;1.38;;
64966;SDS011;51710;38.732;-121.358;2023-03-16T07:00:28;3.45;;;1.20;;
64966;SDS011;51710;38.732;-121.358;2023-03-16T07:02:55;3.85;;;1.20;;
64966;SDS011;51710;38.732;-121.358;2023-03-16T07:05:22;3.35;;;1.58;;
64966;SDS011;51710;38.732;-121.358;2023-03-16T07:07:48;2.83;;;1.13;;
64966;SDS011;51710;38.732;-121.358;2023-03-16T07:10:15;4.90;;;1.30;;
64966;SDS011;51710;38.732;-121.358;2023-03-16T07:12:42;2.33;;;1.33;;
64966;SDS011;51710;38.732;-121.358;2023-03-16T07:15:10;14.50;;;1.63;;
64966;SDS011;51710;38.732;-121.358;2023-03-16T07:17:36;3.60;;;1.17;;
64966;SDS011;51710;38.732;-121.358;2023-03-16T07:20:03;2.63;;;1.25;;
64966;SDS011;51710;38.732;-121.358;2023-03-16T07:22:34;5.78;;;1.40;;
64966;SDS011;51710;38.732;-121.358;2023-03-16T07:25:02;2.00;;;1.10;;
64966;SDS011;51710;38.732;-121.358;2023-03-16T07:27:29;2.08;;;1.13;;
64966;SDS011;51710;38.732;-121.358;2023-03-16T07:29:55;4.72;;;1.40;;
64966;SDS011;51710;38.732;-121.358;2023-03-16T07:32:21;4.13;;;1.20;;
64966;SDS011;51710;38.732;-121.358;2023-03-16T07:34:48;4.25;;;1.15;;
64966;SDS011;51710;38.732;-121.358;2023-03-16T07:37:14;3.30;;;1.00;;
64966;SDS011;51710;38.732;-121.358;2023-03-16T07:39:40;3.28;;;1.20;;
64966;SDS011;51710;38.732;-121.358;2023-03-16T07:42:07;2.92;;;1.40;;
64966;SDS011;51710;38.732;-121.358;2023-03-16T07:44:34;3.35;;;1.33;;
64966;SDS011;51710;38.732;-121.358;2023-03-16T07:47:00;2.45;;;1.10;;
64966;SDS011;51710;38.732;-121.358;2023-03-16T07:49:26;2.22;;;1.10;;
64966;SDS011;51710;38.732;-121.358;2023-03-16T07:51:53;4.47;;;1.27;;
64966;SDS011;51710;38.732;-121.358;2023-03-16T07:54:19;1.90;;;0.98;;
64966;SDS011;51710;38.732;-121.358;2023-03-16T07:56:45;2.65;;;1.25;;
64966;SDS011;51710;38.732;-121.358;2023-03-16T07:59:12;2.22;;;1.15;;
64966;SDS011;51710;38.732;-121.358;2023-03-16T08:01:38;2.95;;;1.08;;
64966;SDS011;51710;38.732;-121.358;2023-03-16T08:04:04;4.10;;;1.30;;
64966;SDS011;51710;38.732;-121.358;2023-03-16T08:06:30;2.38;;;1.50;;
64966;SDS011;51710;38.732;-121.358;2023-03-16T08:08:57;2.28;;;1.20;;
64966;SDS011;51710;38.732;-121.358;2023-03-16T08:11:24;1.75;;;0.85;;
64966;SDS011;51710;38.732;-121.358;2023-03-16T08:13:51;3.75;;;1.10;;
64966;SDS011;51710;38.732;-121.358;2023-03-16T08:16:21;1.83;;;1.10;;
64966;SDS011;51710;38.732;-121.358;2023-03-16T08:18:48;3.38;;;1.15;;
64966;SDS011;51710;38.732;-121.358;2023-03-16T08:21:16;3.67;;;1.15;;
64966;SDS011;51710;38.732;-121.358;2023-03-16T08:23:44;2.70;;;1.20;;
64966;SDS011;51710;38.732;-121.358;2023-03-16T08:26:21;3.03;;;1.20;;
64966;SDS011;51710;38.732;-121.358;2023-03-16T08:28:49;2.88;;;1.23;;
64966;SDS011;51710;38.732;-121.358;2023-03-16T08:31:17;2.45;;;1.23;;
64966;SDS011;51710;38.732;-121.358;2023-03-16T08:33:46;4.10;;;1.33;;
64966;SDS011;51710;38.732;-121.358;2023-03-16T08:36:14;2.85;;;1.30;;
64966;SDS011;51710;38.732;-121.358;2023-03-16T08:38:42;2.53;;;1.40;;
64966;SDS011;51710;38.732;-121.358;2023-03-16T08:41:09;2.22;;;1.30;;
64966;SDS011;51710;38.732;-121.358;2023-03-16T08:43:36;3.83;;;1.38;;
64966;SDS011;51710;38.732;-121.358;2023-03-16T08:46:03;2.20;;;1.27;;
64966;SDS011;51710;38.732;-121.358;2023-03-16T08:48:30;2.13;;;1.17;;
64966;SDS011;51710;38.732;-121.358;2023-03-16T08:51:00;2.97;;;1.23;;
64966;SDS011;51710;38.732;-121.358;2023-03-16T08:53:27;3.90;;;1.60;;
64966;SDS011;51710;38.732;-121.358;2023-03-16T08:56:01;2.85;;;1.50;;
64966;SDS011;51710;38.732;-121.358;2023-03-16T08:58:35;5.18;;;1.77;;
64966;SDS011;51710;38.732;-121.358;2023-03-16T09:01:03;3.15;;;1.40;;
64966;SDS011;51710;38.732;-121.358;2023-03-16T09:03:33;4.15;;;1.40;;
64966;SDS011;51710;38.732;-121.358;2023-03-16T09:06:01;6.78;;;1.55;;
64966;SDS011;51710;38.732;-121.358;2023-03-16T09:08:29;3.63;;;1.15;;
64966;SDS011;51710;38.732;-121.358;2023-03-16T09:11:02;3.75;;;1.70;;
64966;SDS011;51710;38.732;-121.358;2023-03-16T09:13:30;2.83;;;1.48;;
64966;SDS011;51710;38.732;-121.358;2023-03-16T09:15:57;4.05;;;1.48;;
64966;SDS011;51710;38.732;-121.358;2023-03-16T09:18:24;3.83;;;1.52;;
64966;SDS011;51710;38.732;-121.358;2023-03-16T09:20:52;6.47;;;1.98;;
64966;SDS011;51710;38.732;-121.358;2023-03-16T09:23:30;5.13;;;1.75;;
64966;SDS011;51710;38.732;-121.358;2023-03-16T09:26:02;4.10;;;1.50;;
64966;SDS011;51710;38.732;-121.358;2023-03-16T09:28:32;2.60;;;1.58;;
64966;SDS011;51710;38.732;-121.358;2023-03-16T09:31:00;4.55;;;2.17;;
64966;SDS011;51710;38.732;-121.358;2023-03-16T09:33:27;3.53;;;1.80;;
64966;SDS011;51710;38.732;-121.358;2023-03-16T09:35:56;4.35;;;1.80;;
64966;SDS011;51710;38.732;-121.358;2023-03-16T09:38:23;3.35;;;1.92;;
64966;SDS011;51710;38.732;-121.358;2023-03-16T09:41:40;2.92;;;1.63;;
64966;SDS011;51710;38.732;-121.358;2023-03-16T09:43:53;3.75;;;1.50;;
64966;SDS011;51710;38.732;-121.358;2023-03-16T09:46:29;2.88;;;1.63;;
64966;SDS011;51710;38.732;-121.358;2023-03-16T09:49:00;6.43;;;1.45;;
64966;SDS011;51710;38.732;-121.358;2023-03-16T09:57:28;4.47;;;1.70;;
64966;SDS011;51710;38.732;-121.358;2023-03-16T10:00:13;4.07;;;1.42;;
64966;SDS011;51710;38.732;-121.358;2023-03-16T10:05:30;2.83;;;1.70;;
64966;SDS011;51710;38.732;-121.358;2023-03-16T10:08:07;4.72;;;1.60;;
64966;SDS011;51710;38.732;-121.358;2023-03-16T10:11:02;2.92;;;1.52;;
64966;SDS011;51710;38.732;-121.358;2023-03-16T10:13:47;6.57;;;1.38;;
64966;SDS011;51710;38.732;-121.358;2023-03-16T10:16:53;3.67;;;1.35;;
64966;SDS011;51710;38.732;-121.358;2023-03-16T10:19:42;2.67;;;1.15;;
64966;SDS011;51710;38.732;-121.358;2023-03-16T10:27:39;3.92;;;1.38;;
64966;SDS011;51710;38.732;-121.358;2023-03-16T10:33:21;3.85;;;1.48;;
64966;SDS011;51710;38.732;-121.358;2023-03-16T10:41:22;3.30;;;1.70;;
64966;SDS011;51710;38.732;-121.358;2023-03-16T10:44:01;2.70;;;1.45;;
64966;SDS011;51710;38.732;-121.358;2023-03-16T10:46:48;3.53;;;1.58;;
64966;SDS011;51710;38.732;-121.358;2023-03-16T10:49:23;6.28;;;1.70;;
64966;SDS011;51710;38.732;-121.358;2023-03-16T10:51:58;3.40;;;1.75;;
64966;SDS011;51710;38.732;-121.358;2023-03-16T10:54:29;3.40;;;1.80;;
64966;SDS011;51710;38.732;-121.358;2023-03-16T10:57:11;3.53;;;1.67;;
64966;SDS011;51710;38.732;-121.358;2023-03-16T10:59:39;5.28;;;2.03;;
64966;SDS011;51710;38.732;-121.358;2023-03-16T11:02:18;6.00;;;1.88;;
64966;SDS011;51710;38.732;-121.358;2023-03-16T11:04:48;4.45;;;1.98;;
64966;SDS011;51710;38.732;-121.358;2023-03-16T11:07:15;4.18;;;1.90;;
64966;SDS011;51710;38.732;-121.358;2023-03-16T11:09:49;4.68;;;2.20;;
64966;SDS011;51710;38.732;-121.358;2023-03-16T11:14:49;4.57;;;2.35;;
64966;SDS011;51710;38.732;-121.358;2023-03-16T11:17:18;4.47;;;2.00;;
64966;SDS011;51710;38.732;-121.358;2023-03-16T11:19:51;5.30;;;2.10;;
64966;SDS011;51710;38.732;-121.358;2023-03-16T11:22:20;5.40;;;2.35;;
64966;SDS011;51710;38.732;-121.358;2023-03-16T11:33:01;5.25;;;2.38;;
64966;SDS011;51710;38.732;-121.358;2023-03-16T11:38:09;5.13;;;2.40;;
64966;SDS011;51710;38.732;-121.358;2023-03-16T11:49:15;6.05;;;2.65;;
64966;SDS011;51710;38.732;-121.358;2023-03-16T12:00:23;4.78;;;2.30;;
64966;SDS011;51710;38.732;-121.358;2023-03-16T12:03:34;9.75;;;2.40;;
64966;SDS011;51710;38.732;-121.358;2023-03-16T12:12:08;6.32;;;2.90;;
64966;SDS011;51710;38.732;-121.358;2023-03-16T12:15:02;6.68;;;3.42;;
64966;SDS011;51710;38.732;-121.358;2023-03-16T12:17:43;7.43;;;3.63;;
64966;SDS011;51710;38.732;-121.358;2023-03-16T12:20:16;7.45;;;3.88;;
64966;SDS011;51710;38.732;-121.358;2023-03-16T12:22:57;7.53;;;3.20;;
64966;SDS011;51710;38.732;-121.358;2023-03-16T12:25:25;5.60;;;3.40;;
64966;SDS011;51710;38.732;-121.358;2023-03-16T12:28:01;7.80;;;3.00;;
64966;SDS011;51710;38.732;-121.358;2023-03-16T12:30:49;5.30;;;2.78;;
64966;SDS011;51710;38.732;-121.358;2023-03-16T12:39:05;9.52;;;3.95;;
64966;SDS011;51710;38.732;-121.358;2023-03-16T12:47:20;5.47;;;2.80;;
64966;SDS011;51710;38.732;-121.358;2023-03-16T12:50:02;8.07;;;2.90;;
64966;SDS011;51710;38.732;-121.358;2023-03-16T12:52:39;6.80;;;3.25;;
64966;SDS011;51710;38.732;-121.358;2023-03-16T12:57:41;6.43;;;3.13;;
64966;SDS011;51710;38.732;-121.358;2023-03-16T13:00:10;10.18;;;3.63;;
64966;SDS011;51710;38.732;-121.358;2023-03-16T13:02:41;6.70;;;2.97;;
64966;SDS011;51710;38.732;-121.358;2023-03-16T13:05:11;7.45;;;3.13;;
64966;SDS011;51710;38.732;-121.358;2023-03-16T13:08:03;8.40;;;3.45;;
64966;SDS011;51710;38.732;-121.358;2023-03-16T13:10:33;9.23;;;3.65;;
64966;SDS011;51710;38.732;-121.358;2023-03-16T13:13:10;7.82;;;3.33;;
64966;SDS011;51710;38.732;-121.358;2023-03-16T13:15:39;5.93;;;2.80;;
64966;SDS011;51710;38.732;-121.358;2023-03-16T13:23:21;4.53;;;2.60;;
64966;SDS011;51710;38.732;-121.358;2023-03-16T13:28:38;6.25;;;3.25;;
64966;SDS011;51710;38.732;-121.358;2023-03-16T13:31:18;6.85;;;3.13;;
64966;SDS011;51710;38.732;-121.358;2023-03-16T13:34:06;8.35;;;3.15;;
64966;SDS011;51710;38.732;-121.358;2023-03-16T13:36:39;6.55;;;3.00;;
64966;SDS011;51710;38.732;-121.358;2023-03-16T13:41:56;5.75;;;3.25;;
64966;SDS011;51710;38.732;-121.358;2023-03-16T13:44:24;5.03;;;2.88;;
64966;SDS011;51710;38.732;-121.358;2023-03-16T13:46:51;7.05;;;3.42;;
64966;SDS011;51710;38.732;-121.358;2023-03-16T13:49:18;5.72;;;2.72;;
64966;SDS011;51710;38.732;-121.358;2023-03-16T13:51:44;4.68;;;2.97;;
64966;SDS011;51710;38.732;-121.358;2023-03-16T13:54:21;8.25;;;2.95;;
64966;SDS011;51710;38.732;-121.358;2023-03-16T13:56:55;6.18;;;2.97;;
64966;SDS011;51710;38.732;-121.358;2023-03-16T13:59:24;5.85;;;2.45;;
64966;SDS011;51710;38.732;-121.358;2023-03-16T14:01:55;8.50;;;2.70;;
64966;SDS011;51710;38.732;-121.358;2023-03-16T14:04:24;7.00;;;2.70;;
64966;SDS011;51710;38.732;-121.358;2023-03-16T14:06:54;5.55;;;2.45;;
64966;SDS011;51710;38.732;-121.358;2023-03-16T14:09:33;7.85;;;2.50;;
64966;SDS011;51710;38.732;-121.358;2023-03-16T14:12:19;7.25;;;3.15;;
64966;SDS011;51710;38.732;-121.358;2023-03-16T14:14:56;4.10;;;2.53;;
64966;SDS011;51710;38.732;-121.358;2023-03-16T14:17:24;9.18;;;2.67;;
64966;SDS011;51710;38.732;-121.358;2023-03-16T14:20:08;9.73;;;2.83;;
64966;SDS011;51710;38.732;-121.358;2023-03-16T14:22:54;5.30;;;2.60;;
64966;SDS011;51710;38.732;-121.358;2023-03-16T14:25:24;6.30;;;2.83;;
64966;SDS011;51710;38.732;-121.358;2023-03-16T14:27:58;5.50;;;2.60;;
64966;SDS011;51710;38.732;-121.358;2023-03-16T14:30:27;6.70;;;2.92;;
64966;SDS011;51710;38.732;-121.358;2023-03-16T14:33:02;7.30;;;3.15;;
64966;SDS011;51710;38.732;-121.358;2023-03-16T14:35:38;5.07;;;2.33;;
64966;SDS011;51710;38.732;-121.358;2023-03-16T14:40:56;7.60;;;3.10;;
64966;SDS011;51710;38.732;-121.358;2023-03-16T14:43:29;7.47;;;3.65;;
64966;SDS011;51710;38.732;-121.358;2023-03-16T14:46:01;5.28;;;2.78;;
64966;SDS011;51710;38.732;-121.358;2023-03-16T14:48:33;8.38;;;3.08;;
64966;SDS011;51710;38.732;-121.358;2023-03-16T14:51:02;5.43;;;2.78;;
64966;SDS011;51710;38.732;-121.358;2023-03-16T14:53:28;5.10;;;2.72;;
64966;SDS011;51710;38.732;-121.358;2023-03-16T14:55:55;5.55;;;2.45;;
64966;SDS011;51710;38.732;-121.358;2023-03-16T14:58:22;6.00;;;3.05;;
64966;SDS011;51710;38.732;-121.358;2023-03-16T15:00:49;7.18;;;2.80;;
64966;SDS011;51710;38.732;-121.358;2023-03-16T15:03:17;6.60;;;3.15;;
64966;SDS011;51710;38.732;-121.358;2023-03-16T15:05:48;6.25;;;3.00;;
64966;SDS011;51710;38.732;-121.358;2023-03-16T15:08:26;6.65;;;2.72;;
64966;SDS011;51710;38.732;-121.358;2023-03-16T15:10:56;5.10;;;2.30;;
64966;SDS011;51710;38.732;-121.358;2023-03-16T15:13:26;7.15;;;3.25;;
64966;SDS011;51710;38.732;-121.358;2023-03-16T15:16:01;6.05;;;2.40;;
64966;SDS011;51710;38.732;-121.358;2023-03-16T15:18:30;6.93;;;2.28;;
64966;SDS011;51710;38.732;-121.358;2023-03-16T15:20:58;4.75;;;2.00;;
64966;SDS011;51710;38.732;-121.358;2023-03-16T15:23:25;3.95;;;2.20;;
64966;SDS011;51710;38.732;-121.358;2023-03-16T15:25:53;5.18;;;2.42;;
64966;SDS011;51710;38.732;-121.358;2023-03-16T15:28:25;4.07;;;1.95;;
64966;SDS011;51710;38.732;-121.358;2023-03-16T15:30:58;4.30;;;1.95;;
64966;SDS011;51710;38.732;-121.358;2023-03-16T15:33:26;3.28;;;1.75;;
64966;SDS011;51710;38.732;-121.358;2023-03-16T15:35:54;5.85;;;2.10;;
64966;SDS011;51710;38.732;-121.358;2023-03-16T15:38:28;4.68;;;1.92;;
64966;SDS011;51710;38.732;-121.358;2023-03-16T15:41:00;4.65;;;1.98;;
64966;SDS011;51710;38.732;-121.358;2023-03-16T15:43:27;3.95;;;2.15;;
64966;SDS011;51710;38.732;-121.358;2023-03-16T15:45:55;5.25;;;1.98;;
64966;SDS011;51710;38.732;-121.358;2023-03-16T15:48:23;5.07;;;1.83;;
64966;SDS011;51710;38.732;-121.358;2023-03-16T15:53:27;4.72;;;2.00;;
64966;SDS011;51710;38.732;-121.358;2023-03-16T15:56:25;4.47;;;2.63;;
64966;SDS011;51710;38.732;-121.358;2023-03-16T15:59:02;4.90;;;2.28;;
64966;SDS011;51710;38.732;-121.358;2023-03-16T16:01:32;4.35;;;1.90;;
64966;SDS011;51710;38.732;-121.358;2023-03-16T16:04:14;3.30;;;1.58;;